createdAt,value
2023-04-08T00:01:11.310Z,2.20
2023-04-08T00:03:38.568Z,1.80
2023-04-08T00:06:07.602Z,1.80
2023-04-08T00:08:36.381Z,2.40
2023-04-08T00:11:03.090Z,1.90
2023-04-08T00:13:29.884Z,2.00
2023-04-08T00:15:56.371Z,2.30
2023-04-08T00:18:22.797Z,2.10
2023-04-08T00:20:50.454Z,1.90
2023-04-08T00:23:17.743Z,2.10
2023-04-08T00:25:45.099Z,2.20
2023-04-08T00:28:13.939Z,2.40
2023-04-08T00:30:41.209Z,2.20
2023-04-08T00:33:08.235Z,1.70
2023-04-08T00:35:34.930Z,2.20
2023-04-08T00:38:03.008Z,1.60
2023-04-08T00:40:29.748Z,1.80
2023-04-08T00:42:57.865Z,1.80
2023-04-08T00:45:27.894Z,2.00
2023-04-08T00:47:56.041Z,2.00
2023-04-08T00:50:22.791Z,2.20
2023-04-08T00:52:52.610Z,1.90
2023-04-08T00:55:20.010Z,2.20
2023-04-08T00:57:48.027Z,2.10
2023-04-08T01:00:16.353Z,1.90
2023-04-08T01:03:12.009Z,2.00
2023-04-08T01:06:02.994Z,1.70
2023-04-08T01:08:32.448Z,2.20
2023-04-08T01:11:02.630Z,2.10
2023-04-08T01:13:36.852Z,2.00
2023-04-08T01:16:03.886Z,1.00
2023-04-08T01:18:35.945Z,1.50
2023-04-08T01:21:04.837Z,1.10
2023-04-08T01:23:50.961Z,1.50
2023-04-08T01:26:25.057Z,1.70
2023-04-08T01:29:01.164Z,1.10
2023-04-08T01:31:29.510Z,1.30
2023-04-08T01:34:01.064Z,1.90
2023-04-08T01:36:31.958Z,1.60
2023-04-08T01:39:02.284Z,1.50
2023-04-08T01:41:31.354Z,1.90
2023-04-08T01:44:03.269Z,1.50
2023-04-08T01:46:32.031Z,1.80
2023-04-08T01:49:00.411Z,1.30
2023-04-08T01:51:32.010Z,1.40
2023-04-08T01:53:59.095Z,1.40
2023-04-08T01:56:30.149Z,1.10
2023-04-08T01:59:05.552Z,1.30
2023-04-08T02:01:34.980Z,1.60
2023-04-08T02:04:03.779Z,1.00
2023-04-08T02:06:31.426Z,1.50
2023-04-08T02:09:03.360Z,1.40
2023-04-08T02:11:31.354Z,1.30
2023-04-08T02:14:01.171Z,1.40
2023-04-08T02:16:45.478Z,1.20
2023-04-08T02:19:31.489Z,1.50
2023-04-08T02:22:17.977Z,1.40
2023-04-08T02:24:47.181Z,1.30
2023-04-08T02:27:15.158Z,1.20
2023-04-08T02:29:42.662Z,1.20
2023-04-08T02:32:12.527Z,1.60
2023-04-08T02:34:41.962Z,1.60
2023-04-08T02:37:10.087Z,1.50
2023-04-08T02:39:36.781Z,1.90
2023-04-08T02:42:05.270Z,1.60
2023-04-08T02:44:32.180Z,1.70
2023-04-08T02:46:58.648Z,1.30
2023-04-08T02:49:26.192Z,1.30
2023-04-08T02:51:55.362Z,1.40
2023-04-08T02:54:24.357Z,1.00
2023-04-08T02:56:50.802Z,1.20
2023-04-08T02:59:17.553Z,1.00
2023-04-08T03:01:44.786Z,1.60
2023-04-08T03:04:11.418Z,1.40
2023-04-08T03:06:42.991Z,1.50
2023-04-08T03:09:15.087Z,1.10
2023-04-08T03:11:47.062Z,1.30
2023-04-08T03:14:13.898Z,1.30
2023-04-08T03:16:43.648Z,1.50
2023-04-08T03:19:10.532Z,1.80
2023-04-08T03:21:37.036Z,1.50
2023-04-08T03:24:05.671Z,1.70
2023-04-08T03:26:32.390Z,1.70
2023-04-08T03:29:00.079Z,1.60
2023-04-08T03:31:26.998Z,1.20
2023-04-08T03:33:53.994Z,1.80
2023-04-08T03:36:21.892Z,1.70
2023-04-08T03:38:48.888Z,1.60
2023-04-08T03:41:16.031Z,1.50
2023-04-08T03:43:42.767Z,1.40
2023-04-08T03:46:10.595Z,1.20
2023-04-08T03:48:38.309Z,1.60
2023-04-08T03:51:04.744Z,1.30
2023-04-08T03:53:35.871Z,1.20
2023-04-08T03:56:04.166Z,1.20
2023-04-08T03:58:33.425Z,1.40
2023-04-08T04:01:00.155Z,1.20
2023-04-08T04:03:26.716Z,1.40
2023-04-08T04:05:55.656Z,1.30
2023-04-08T04:08:22.711Z,1.10
2023-04-08T04:10:51.564Z,1.40
2023-04-08T04:13:19.753Z,0.90
2023-04-08T04:15:48.686Z,1.40
2023-04-08T04:18:15.801Z,1.60
2023-04-08T04:20:43.737Z,1.20
2023-04-08T04:23:11.703Z,1.20
2023-04-08T04:25:41.876Z,1.40
2023-04-08T04:28:09.772Z,1.00
2023-04-08T04:30:40.223Z,1.20
2023-04-08T04:33:07.215Z,1.10
2023-04-08T04:35:34.735Z,1.10
2023-04-08T04:38:01.573Z,1.30
2023-04-08T04:40:28.083Z,1.10
2023-04-08T04:42:56.793Z,1.30
2023-04-08T04:45:23.586Z,1.70
2023-04-08T04:47:50.040Z,1.40
2023-04-08T04:50:18.059Z,1.30
2023-04-08T04:52:44.995Z,1.20
2023-04-08T04:55:12.813Z,1.30
2023-04-08T04:57:39.312Z,1.40
2023-04-08T05:00:10.628Z,1.10
2023-04-08T05:02:37.663Z,1.20
2023-04-08T05:05:07.481Z,1.40
2023-04-08T05:07:38.743Z,1.20
2023-04-08T05:10:07.152Z,1.20
2023-04-08T05:12:34.539Z,1.30
2023-04-08T05:15:02.722Z,1.00
2023-04-08T05:17:30.734Z,1.40
2023-04-08T05:19:57.231Z,1.50
2023-04-08T05:22:23.771Z,1.80
2023-04-08T05:24:50.403Z,1.70
2023-04-08T05:27:18.731Z,1.20
2023-04-08T05:29:45.331Z,1.10
2023-04-08T05:32:11.736Z,1.20
2023-04-08T05:34:38.237Z,1.40
2023-04-08T05:37:06.395Z,1.40
2023-04-08T05:39:32.835Z,1.80
2023-04-08T05:41:59.835Z,1.40
2023-04-08T05:44:29.113Z,1.40
2023-04-08T05:46:57.044Z,1.30
2023-04-08T05:49:24.783Z,1.10
2023-04-08T05:51:52.794Z,1.50
2023-04-08T05:54:23.581Z,1.30
2023-04-08T05:56:50.210Z,1.10
2023-04-08T05:59:16.720Z,1.00
2023-04-08T06:01:43.170Z,1.50
2023-04-08T06:04:09.856Z,1.40
2023-04-08T06:06:39.978Z,1.60
2023-04-08T06:09:09.465Z,1.50
2023-04-08T06:11:35.944Z,1.40
2023-04-08T06:14:03.115Z,1.20
2023-04-08T06:16:31.088Z,1.40
2023-04-08T06:19:00.108Z,1.10
2023-04-08T06:21:27.105Z,1.10
2023-04-08T06:23:53.602Z,1.20
2023-04-08T06:26:20.121Z,1.50
2023-04-08T06:28:47.117Z,1.90
2023-04-08T06:31:15.089Z,1.40
2023-04-08T06:33:42.197Z,1.60
2023-04-08T06:36:09.238Z,1.00
2023-04-08T06:38:35.935Z,1.30
2023-04-08T06:41:05.327Z,1.20
2023-04-08T06:43:34.810Z,1.00
2023-04-08T06:46:02.827Z,1.30
2023-04-08T06:48:32.310Z,1.10
2023-04-08T06:51:02.493Z,1.10
2023-04-08T06:53:32.624Z,1.30
2023-04-08T06:56:04.213Z,1.00
2023-04-08T06:58:32.086Z,1.10
2023-04-08T07:01:02.641Z,1.10
2023-04-08T07:03:30.284Z,1.10
2023-04-08T07:05:57.076Z,1.20
2023-04-08T07:08:24.395Z,0.90
2023-04-08T07:10:53.396Z,1.60
2023-04-08T07:13:20.677Z,1.40
2023-04-08T07:15:47.234Z,1.10
2023-04-08T07:18:14.258Z,0.90
2023-04-08T07:20:42.368Z,1.20
2023-04-08T07:23:09.117Z,0.90
2023-04-08T07:25:35.813Z,1.30
2023-04-08T07:28:02.548Z,0.70
2023-04-08T07:30:29.021Z,0.90
2023-04-08T07:32:59.233Z,1.10
2023-04-08T07:35:29.625Z,1.30
2023-04-08T07:37:57.432Z,1.20
2023-04-08T07:40:26.006Z,1.00
2023-04-08T07:42:52.505Z,1.10
2023-04-08T07:45:20.206Z,1.10
2023-04-08T07:47:46.782Z,0.90
2023-04-08T07:50:14.028Z,1.20
2023-04-08T07:52:40.531Z,1.10
2023-04-08T07:55:08.153Z,1.20
2023-04-08T07:57:37.644Z,1.50
2023-04-08T08:00:07.350Z,1.10
2023-04-08T08:05:32.244Z,1.30
2023-04-08T08:08:03.193Z,1.00
2023-04-08T08:10:29.632Z,1.40
2023-04-08T08:12:56.036Z,1.00
2023-04-08T08:15:22.859Z,1.10
2023-04-08T08:17:49.827Z,1.20
2023-04-08T08:20:19.424Z,1.50
2023-04-08T08:22:56.634Z,1.10
2023-04-08T08:25:31.650Z,0.80
2023-04-08T08:27:58.510Z,1.30
2023-04-08T08:30:27.739Z,1.10
2023-04-08T08:32:55.959Z,1.30
2023-04-08T08:35:24.183Z,1.60
2023-04-08T08:37:52.238Z,1.70
2023-04-08T08:40:20.015Z,1.30
2023-04-08T08:42:54.671Z,1.30
2023-04-08T08:45:24.677Z,1.20
2023-04-08T08:47:58.061Z,1.40
2023-04-08T08:50:25.881Z,0.80
2023-04-08T08:52:53.172Z,1.00
2023-04-08T08:55:41.420Z,1.10
2023-04-08T08:58:13.119Z,1.00
2023-04-08T09:00:42.098Z,1.00
2023-04-08T09:03:21.740Z,0.90
2023-04-08T09:05:58.650Z,1.20
2023-04-08T09:08:37.828Z,0.90
2023-04-08T09:11:18.645Z,1.00
2023-04-08T09:13:46.663Z,1.20
2023-04-08T09:16:19.604Z,0.90
2023-04-08T09:18:48.415Z,1.10
2023-04-08T09:21:18.542Z,1.00
2023-04-08T09:23:49.397Z,1.10
2023-04-08T09:26:21.902Z,1.50
2023-04-08T09:29:25.116Z,1.20
2023-04-08T09:31:58.065Z,1.40
2023-04-08T09:34:31.665Z,1.10
2023-04-08T09:36:58.055Z,1.00
2023-04-08T09:39:24.795Z,1.40
2023-04-08T09:41:57.881Z,1.20
2023-04-08T09:44:31.306Z,1.60
2023-04-08T09:47:21.520Z,1.00
2023-04-08T09:50:01.330Z,1.20
2023-04-08T09:52:46.740Z,1.40
2023-04-08T09:55:17.052Z,1.30
2023-04-08T09:57:52.620Z,1.00
2023-04-08T10:00:25.447Z,1.20
2023-04-08T10:03:12.728Z,0.90
2023-04-08T10:05:44.665Z,1.10
2023-04-08T10:08:12.983Z,1.10
2023-04-08T10:10:42.421Z,1.00
2023-04-08T10:13:14.021Z,1.00
2023-04-08T10:15:43.675Z,0.90
2023-04-08T10:18:33.284Z,1.40
2023-04-08T10:21:00.246Z,1.40
2023-04-08T10:23:57.051Z,1.10
2023-04-08T10:26:35.436Z,1.40
2023-04-08T10:29:18.484Z,1.10
2023-04-08T10:31:52.702Z,1.10
2023-04-08T10:34:27.346Z,1.00
2023-04-08T10:36:58.377Z,1.50
2023-04-08T10:39:27.069Z,1.20
2023-04-08T10:41:54.213Z,1.10
2023-04-08T10:44:32.115Z,0.90
2023-04-08T10:46:58.829Z,1.00
2023-04-08T10:49:34.234Z,1.10
2023-04-08T10:52:00.826Z,1.00
2023-04-08T10:54:29.041Z,1.00
2023-04-08T10:56:56.053Z,1.10
2023-04-08T10:59:32.492Z,0.90
2023-04-08T11:02:02.059Z,1.00
2023-04-08T11:04:33.220Z,1.10
2023-04-08T11:06:59.822Z,1.20
2023-04-08T11:09:27.192Z,0.90
2023-04-08T11:11:54.054Z,1.00
2023-04-08T11:17:05.220Z,1.00
2023-04-08T11:19:33.578Z,1.10
2023-04-08T11:22:02.094Z,1.10
2023-04-08T11:24:29.146Z,0.90
2023-04-08T11:26:59.486Z,0.60
2023-04-08T11:29:26.076Z,1.00
2023-04-08T11:31:53.469Z,0.90
2023-04-08T11:34:28.227Z,0.80
2023-04-08T11:36:58.097Z,0.80
2023-04-08T11:39:26.178Z,1.00
2023-04-08T11:41:54.955Z,1.00
2023-04-08T11:44:31.798Z,1.00
2023-04-08T11:47:02.373Z,1.20
2023-04-08T11:49:45.004Z,0.90
2023-04-08T11:52:14.307Z,1.00
2023-04-08T11:54:43.745Z,0.90
2023-04-08T11:57:11.488Z,1.30
2023-04-08T11:59:38.165Z,1.20
2023-04-08T12:02:05.643Z,0.90
2023-04-08T12:04:33.585Z,1.20
2023-04-08T12:07:00.440Z,0.80
2023-04-08T12:09:27.950Z,1.10
2023-04-08T12:11:56.425Z,1.00
2023-04-08T12:14:26.240Z,1.70
2023-04-08T12:16:55.177Z,1.20
2023-04-08T12:19:22.074Z,1.00
2023-04-08T12:21:49.520Z,0.90
2023-04-08T12:24:16.009Z,1.10
2023-04-08T12:26:42.409Z,0.80
2023-04-08T12:29:11.705Z,0.70
2023-04-08T12:31:40.406Z,1.10
2023-04-08T12:34:08.032Z,0.90
2023-04-08T12:36:35.518Z,0.80
2023-04-08T12:39:02.500Z,0.80
2023-04-08T12:41:31.454Z,1.00
2023-04-08T12:43:57.816Z,0.70
2023-04-08T12:46:24.586Z,1.00
2023-04-08T12:49:02.922Z,0.80
2023-04-08T12:51:30.425Z,0.80
2023-04-08T12:53:57.086Z,0.80
2023-04-08T12:56:23.644Z,0.70
2023-04-08T12:58:53.052Z,0.90
2023-04-08T13:01:20.425Z,0.80
2023-04-08T13:03:48.797Z,0.80
2023-04-08T13:06:16.178Z,0.90
2023-04-08T13:08:43.555Z,1.00
2023-04-08T13:11:10.393Z,1.00
2023-04-08T13:13:37.139Z,0.80
2023-04-08T13:16:04.569Z,0.80
2023-04-08T13:18:31.662Z,0.50
2023-04-08T13:20:58.761Z,0.90
2023-04-08T13:23:25.771Z,0.80
2023-04-08T13:25:52.171Z,0.70
2023-04-08T13:28:21.643Z,0.70
2023-04-08T13:30:48.298Z,0.80
2023-04-08T13:33:15.052Z,0.90
2023-04-08T13:35:44.706Z,0.90
2023-04-08T13:38:13.159Z,0.80
2023-04-08T13:40:40.059Z,0.70
2023-04-08T13:43:09.637Z,0.70
2023-04-08T13:45:36.401Z,0.70
2023-04-08T13:48:04.255Z,0.90
2023-04-08T13:50:31.402Z,0.70
2023-04-08T13:52:58.228Z,0.70
2023-04-08T13:55:26.038Z,0.80
2023-04-08T13:57:52.596Z,0.60
2023-04-08T14:00:19.090Z,0.70
2023-04-08T14:02:46.034Z,0.80
2023-04-08T14:05:12.574Z,1.40
2023-04-08T14:07:39.103Z,0.70
2023-04-08T14:10:07.127Z,1.10
2023-04-08T14:12:35.594Z,1.00
2023-04-08T14:15:03.569Z,0.90
2023-04-08T14:17:30.314Z,0.80
2023-04-08T14:19:58.976Z,0.70
2023-04-08T14:22:25.969Z,0.70
2023-04-08T14:24:52.597Z,0.70
2023-04-08T14:27:19.539Z,0.60
2023-04-08T14:29:49.205Z,0.60
2023-04-08T14:32:17.822Z,0.70
2023-04-08T14:34:44.426Z,0.80
2023-04-08T14:37:11.903Z,0.80
2023-04-08T14:39:38.708Z,0.80
2023-04-08T14:42:05.386Z,0.60
2023-04-08T14:44:33.687Z,0.70
2023-04-08T14:47:00.817Z,0.80
2023-04-08T14:49:27.387Z,0.90
2023-04-08T14:51:53.952Z,0.70
2023-04-08T14:54:20.425Z,0.90
2023-04-08T14:56:47.212Z,0.70
2023-04-08T14:59:14.062Z,0.50
2023-04-08T15:01:41.948Z,0.80
2023-04-08T15:04:08.675Z,0.70
2023-04-08T15:06:38.475Z,0.80
2023-04-08T15:09:06.948Z,0.70
2023-04-08T15:11:33.963Z,0.70
2023-04-08T15:14:01.109Z,0.70
2023-04-08T15:16:28.501Z,0.80
2023-04-08T15:18:59.044Z,0.80
2023-04-08T15:21:26.973Z,0.80
2023-04-08T15:23:53.773Z,0.80
2023-04-08T15:26:21.554Z,0.70
2023-04-08T15:28:49.432Z,0.80
2023-04-08T15:31:16.965Z,0.80
2023-04-08T15:33:45.599Z,0.80
2023-04-08T15:36:18.926Z,0.70
2023-04-08T15:38:47.063Z,0.60
2023-04-08T15:41:20.767Z,0.90
2023-04-08T15:43:49.553Z,0.90
2023-04-08T15:46:22.947Z,0.80
2023-04-08T15:48:50.037Z,0.70
2023-04-08T15:51:17.996Z,1.40
2023-04-08T15:53:45.192Z,0.80
2023-04-08T15:56:16.603Z,0.70
2023-04-08T15:58:45.960Z,0.80
2023-04-08T16:01:13.743Z,0.80
2023-04-08T16:03:40.988Z,0.90
2023-04-08T16:06:12.150Z,0.80
2023-04-08T16:08:39.999Z,0.70
2023-04-08T16:11:10.301Z,0.70
2023-04-08T16:13:38.597Z,0.90
2023-04-08T16:16:08.066Z,0.80
2023-04-08T16:18:35.043Z,0.90
2023-04-08T16:21:05.529Z,0.70
2023-04-08T16:23:37.115Z,0.80
2023-04-08T16:26:07.341Z,0.80
2023-04-08T16:28:41.119Z,1.00
2023-04-08T16:31:12.026Z,0.90
2023-04-08T16:33:42.209Z,0.90
2023-04-08T16:38:39.130Z,0.80
2023-04-08T16:41:09.378Z,0.90
2023-04-08T16:43:38.373Z,0.80
2023-04-08T16:46:18.090Z,0.90
2023-04-08T16:48:44.929Z,1.00
2023-04-08T16:51:11.416Z,0.90
2023-04-08T16:53:38.299Z,0.90
2023-04-08T16:56:16.922Z,1.00
2023-04-08T16:58:45.091Z,1.10
2023-04-08T17:01:15.655Z,1.00
2023-04-08T17:03:42.516Z,1.00
2023-04-08T17:06:13.120Z,1.10
2023-04-08T17:08:42.934Z,0.80
2023-04-08T17:11:14.522Z,0.70
2023-04-08T17:13:44.924Z,1.30
2023-04-08T17:16:16.101Z,1.00
2023-04-08T17:18:46.523Z,1.30
2023-04-08T17:21:13.859Z,1.10
2023-04-08T17:23:41.565Z,1.20
2023-04-08T17:26:12.277Z,1.90
2023-04-08T17:28:39.206Z,1.20
2023-04-08T17:31:05.700Z,1.00
2023-04-08T17:33:34.047Z,1.20
2023-04-08T17:36:01.786Z,0.90
2023-04-08T17:38:33.726Z,1.60
2023-04-08T17:41:01.478Z,0.90
2023-04-08T17:43:27.935Z,1.10
2023-04-08T17:46:03.729Z,1.10
2023-04-08T17:48:30.546Z,1.20
2023-04-08T17:51:05.744Z,1.40
2023-04-08T17:53:36.356Z,1.10
2023-04-08T17:56:04.797Z,0.90
2023-04-08T17:58:31.547Z,0.90
2023-04-08T18:01:00.062Z,1.10
2023-04-08T18:03:30.380Z,1.10
2023-04-08T18:05:57.286Z,1.00
2023-04-08T18:08:23.800Z,1.00
2023-04-08T18:10:51.360Z,1.20
2023-04-08T18:13:21.925Z,1.00
2023-04-08T18:15:48.577Z,1.10
2023-04-08T18:18:18.881Z,1.00
2023-04-08T18:20:46.825Z,1.00
2023-04-08T18:23:14.854Z,1.40
2023-04-08T18:25:49.544Z,1.10
2023-04-08T18:28:21.785Z,2.00
2023-04-08T18:30:53.055Z,0.90
2023-04-08T18:33:19.910Z,1.20
2023-04-08T18:35:48.101Z,1.00
2023-04-08T18:38:16.477Z,1.00
2023-04-08T18:40:44.953Z,1.10
2023-04-08T18:43:13.792Z,2.00
2023-04-08T18:45:41.399Z,1.10
2023-04-08T18:48:10.259Z,1.60
2023-04-08T18:50:36.654Z,1.40
2023-04-08T18:53:04.232Z,1.10
2023-04-08T18:55:35.742Z,1.50
2023-04-08T18:58:03.418Z,1.40
2023-04-08T19:00:30.716Z,1.30
2023-04-08T19:02:59.895Z,1.60
2023-04-08T19:05:26.833Z,2.20
2023-04-08T19:07:55.555Z,1.60
2023-04-08T19:10:23.888Z,1.80
2023-04-08T19:12:50.859Z,1.20
2023-04-08T19:15:17.309Z,1.30
2023-04-08T19:17:46.274Z,1.20
2023-04-08T19:20:13.166Z,1.10
2023-04-08T19:22:40.454Z,1.60
2023-04-08T19:25:09.212Z,2.30
2023-04-08T19:27:37.261Z,1.60
2023-04-08T19:30:06.360Z,1.30
2023-04-08T19:32:35.679Z,1.50
2023-04-08T19:35:03.213Z,1.90
2023-04-08T19:37:32.429Z,5.10
2023-04-08T19:40:00.619Z,1.80
2023-04-08T19:42:29.062Z,2.20
2023-04-08T19:44:57.149Z,2.40
2023-04-08T19:47:26.963Z,3.90
2023-04-08T19:49:55.260Z,2.90
2023-04-08T19:52:24.648Z,2.70
2023-04-08T19:54:51.554Z,1.90
2023-04-08T19:57:18.703Z,2.10
2023-04-08T19:59:47.399Z,1.80
2023-04-08T20:02:21.626Z,2.70
2023-04-08T20:07:20.241Z,2.50
2023-04-08T20:09:47.054Z,5.00
2023-04-08T20:12:13.660Z,3.50
2023-04-08T20:14:44.824Z,3.80
2023-04-08T20:17:11.985Z,4.30
2023-04-08T20:19:40.879Z,2.30
2023-04-08T20:22:07.592Z,2.20
2023-04-08T20:24:36.842Z,1.40
2023-04-08T20:27:03.580Z,1.70
2023-04-08T20:29:30.469Z,1.40
2023-04-08T20:32:01.332Z,1.60
2023-04-08T20:34:27.904Z,3.80
2023-04-08T20:36:57.391Z,3.70
2023-04-08T20:39:31.007Z,6.40
2023-04-08T20:41:59.777Z,5.60
2023-04-08T20:44:27.621Z,6.00
2023-04-08T20:46:54.946Z,5.30
2023-04-08T20:49:24.263Z,5.40
2023-04-08T20:51:50.866Z,5.20
2023-04-08T20:54:17.927Z,3.50
2023-04-08T20:56:46.706Z,4.00
2023-04-08T20:59:13.652Z,3.70
2023-04-08T21:01:40.907Z,4.10
2023-04-08T21:04:08.302Z,3.30
2023-04-08T21:06:36.945Z,2.50
2023-04-08T21:09:05.340Z,2.30
2023-04-08T21:11:33.696Z,2.40
2023-04-08T21:14:02.073Z,2.70
2023-04-08T21:16:30.218Z,3.00
2023-04-08T21:19:01.545Z,2.70
2023-04-08T21:21:28.214Z,2.40
2023-04-08T21:23:54.745Z,2.30
2023-04-08T21:26:22.503Z,2.30
2023-04-08T21:28:49.721Z,2.50
2023-04-08T21:31:16.720Z,2.00
2023-04-08T21:33:46.273Z,4.30
2023-04-08T21:36:13.239Z,7.50
2023-04-08T21:38:42.528Z,11.00
2023-04-08T21:41:10.634Z,9.10
2023-04-08T21:43:40.066Z,6.20
2023-04-08T21:46:06.888Z,4.40
2023-04-08T21:48:33.516Z,4.40
2023-04-08T21:51:00.579Z,3.00
2023-04-08T21:53:28.195Z,3.10
2023-04-08T21:55:56.374Z,3.30
2023-04-08T21:58:23.530Z,3.40
2023-04-08T22:00:50.363Z,3.30
2023-04-08T22:03:16.923Z,5.00
2023-04-08T22:05:46.084Z,3.90
2023-04-08T22:08:14.201Z,4.20
2023-04-08T22:10:41.526Z,2.80
2023-04-08T22:13:09.483Z,2.70
2023-04-08T22:15:37.944Z,2.10
2023-04-08T22:18:05.786Z,2.90
2023-04-08T22:20:32.961Z,5.50
2023-04-08T22:22:59.368Z,5.10
2023-04-08T22:25:27.681Z,5.30
2023-04-08T22:27:54.264Z,3.60
2023-04-08T22:30:21.438Z,3.00
2023-04-08T22:32:48.343Z,2.30
2023-04-08T22:35:15.834Z,2.00
2023-04-08T22:37:43.047Z,2.00
2023-04-08T22:40:09.828Z,2.70
2023-04-08T22:42:36.247Z,2.90
2023-04-08T22:45:04.353Z,2.50
2023-04-08T22:47:30.880Z,2.10
2023-04-08T22:49:57.593Z,1.90
2023-04-08T22:52:25.958Z,1.90
2023-04-08T22:54:52.393Z,2.00
2023-04-08T22:57:19.685Z,2.20
2023-04-08T22:59:46.745Z,1.80
2023-04-08T23:02:15.789Z,2.20
2023-04-08T23:04:42.787Z,1.80
2023-04-08T23:07:10.337Z,2.00
2023-04-08T23:09:36.842Z,2.00
2023-04-08T23:12:05.885Z,2.10
2023-04-08T23:14:32.326Z,1.80
2023-04-08T23:17:00.497Z,1.90
2023-04-08T23:19:28.830Z,1.30
2023-04-08T23:21:55.387Z,2.00
2023-04-08T23:24:22.117Z,1.80
2023-04-08T23:26:49.927Z,1.90
2023-04-08T23:29:16.912Z,2.10
2023-04-08T23:31:46.191Z,2.30
2023-04-08T23:34:12.935Z,2.20
2023-04-08T23:36:39.731Z,2.00
2023-04-08T23:39:07.537Z,1.90
2023-04-08T23:41:34.379Z,2.00
2023-04-08T23:44:01.438Z,2.20
2023-04-08T23:46:28.488Z,2.00
2023-04-08T23:48:55.500Z,2.00
2023-04-08T23:51:22.663Z,1.80
2023-04-08T23:53:51.581Z,1.60
2023-04-08T23:56:18.055Z,1.90
2023-04-08T23:58:44.945Z,1.70
